Terminal Aerodrome Forecast
Issued by NWS

Home | Current Version | Previous Version | Text Only | Print | Product List | Glossary Off
Versions: 1 2 3 4 5 6 7 8 9 10 11 12 13 14 15 16 17 18 19 20 21

000
FTUS43 KMPX 192000 AAB
TAFRWF
TAF AMD
KRWF 192000Z 1920/2018 02015G24KT 2SM -SN BR BKN018 OVC025
     FM192200 03013G20KT P6SM VCSH OVC015
     FM200400 03010KT P6SM OVC015
     FM200800 02008KT 2SM -SN OVC015
     FM201000 35009KT 1SM -SN OVC015
     FM201200 35008KT 1 1/2SM -SN BR OVC015=

USA.gov is the U.S. government's official web portal to all federal, state and local government web resources and services.